Time;durP1;ratioP1;P1;durP2;ratioP2;P2;SDS_P1;SDS_P2;PMS_P1;PMS_P2;Temp;Humidity;BMP_temperature;BMP_pressure;BME280_temperature;BME280_humidity;BME280_pressure;Samples;Min_cycle;Max_cycle;Signal;HPM_P1;HPM_P2
2021/06/19 11:14:44;;;;;;;5.97;2.42;;;;;;;23.81;50.32;101719.06;5059757;27;20837;-33
2021/06/19 11:17:15;;;;;;;4.00;2.10;;;;;;;23.78;50.47;101722.09;5009816;28;82447;-35
2021/06/19 11:19:47;;;;;;;5.90;2.20;;;;;;;23.77;50.93;101714.94;5029458;28;20053;-35
2021/06/19 11:22:33;;;;;;;14.57;2.50;;;;;;;23.75;50.83;101701.47;5034004;28;20033;-40
2021/06/19 11:25:12;;;;;;;4.43;2.20;;;;;;;23.71;50.94;101709.06;5030966;28;20068;-39
2021/06/19 11:27:57;;;;;;;3.17;2.20;;;;;;;23.68;51.16;101706.63;5028452;28;20410;-38
2021/06/19 11:30:35;;;;;;;5.33;2.40;;;;;;;23.64;51.25;101701.59;5028657;28;20112;-38
2021/06/19 11:33:15;;;;;;;8.50;2.00;;;;;;;23.61;51.36;101710.03;5032745;28;20122;-37
2021/06/19 11:35:41;;;;;;;6.27;2.20;;;;;;;23.58;50.80;101707.63;5028689;28;20122;-41
2021/06/19 11:38:07;;;;;;;6.00;2.37;;;;;;;23.52;51.08;101712.63;5032137;28;20032;-35
2021/06/19 11:40:33;;;;;;;2.73;2.20;;;;;;;23.50;51.35;101703.75;5028179;28;20112;-38
2021/06/19 11:42:58;;;;;;;5.13;2.57;;;;;;;23.50;51.37;101711.91;5025024;28;20035;-38
2021/06/19 11:45:24;;;;;;;17.33;2.30;;;;;;;23.52;51.76;101714.47;5032021;28;20036;-38
2021/06/19 11:48:01;;;;;;;7.17;2.63;;;;;;;23.53;51.66;101714.31;5019124;28;20518;-35
2021/06/19 11:50:34;;;;;;;3.17;2.20;;;;;;;23.52;51.46;101706.31;5008722;28;20049;-36
2021/06/19 11:53:28;;;;;;;8.17;2.23;;;;;;;23.48;51.30;101694.84;5000046;28;20060;-36
2021/06/19 11:56:10;;;;;;;4.40;2.60;;;;;;;23.44;51.78;101693.41;5011012;28;20509;-36
2021/06/19 11:58:55;;;;;;;2.57;2.20;;;;;;;23.42;51.96;101697.25;5004954;28;20025;-37
2021/06/19 12:03:46;;;;;;;3.13;2.83;;;;;;;22.51;53.33;101682.63;5078772;27;20128;-56
2021/06/19 12:06:11;;;;;;;3.47;2.90;;;;;;;22.04;54.15;101674.88;5087834;27;20039;-58
2021/06/19 12:08:37;;;;;;;5.93;3.00;;;;;;;21.67;54.94;101669.88;5092838;27;20116;-56
2021/06/19 12:11:02;;;;;;;4.87;3.10;;;;;;;21.65;56.77;101672.72;5084372;27;20022;-55
2021/06/19 12:13:38;;;;;;;4.63;2.80;;;;;;;21.55;54.74;101663.59;5093604;27;20038;-54
2021/06/19 12:16:06;;;;;;;4.82;2.70;;;;;;;22.03;54.30;101675.00;5089485;27;20036;-56
2021/06/19 12:18:31;;;;;;;3.03;2.43;;;;;;;22.16;54.38;101682.97;5089898;27;20106;-58
2021/06/19 12:21:07;;;;;;;3.67;3.00;;;;;;;22.30;53.41;101678.03;5086059;27;20080;-58
2021/06/19 12:23:43;;;;;;;6.88;3.28;;;;;;;22.66;53.18;101676.84;5047565;27;20080;-57
2021/06/19 12:26:13;;;;;;;4.10;3.05;;;;;;;22.94;52.35;101669.78;5042874;28;80080;-57
2021/06/19 12:28:42;;;;;;;3.33;2.90;;;;;;;22.90;53.26;101674.66;5066307;28;20024;-56
2021/06/19 12:31:07;;;;;;;5.47;3.00;;;;;;;23.34;53.11;101684.38;5048864;28;20116;-57
2021/06/19 12:33:33;;;;;;;4.33;2.90;;;;;;;23.69;49.91;101680.22;5048917;28;20615;-56
2021/06/19 12:35:59;;;;;;;5.90;3.30;;;;;;;23.64;52.40;101693.41;5053066;28;20048;-57
2021/06/19 12:38:25;;;;;;;8.30;3.13;;;;;;;23.47;50.91;101700.44;5013114;28;20052;-57
2021/06/19 12:40:50;;;;;;;3.80;2.90;;;;;;;23.24;51.58;101698.81;5017660;28;20037;-56
2021/06/19 12:43:16;;;;;;;5.33;3.20;;;;;;;22.91;52.94;101695.38;5025901;28;80736;-57
2021/06/19 12:45:46;;;;;;;5.43;2.93;;;;;;;22.96;51.51;101705.00;5032448;28;20052;-57
2021/06/19 12:48:25;;;;;;;5.60;4.10;;;;;;;22.40;52.76;101715.31;5036160;28;20047;-58
2021/06/19 12:50:59;;;;;;;4.50;3.50;;;;;;;21.94;54.17;101723.72;5042901;28;20037;-57
2021/06/19 12:53:28;;;;;;;4.90;3.47;;;;;;;21.91;54.65;101726.72;5045531;28;20047;-58
2021/06/19 12:55:54;;;;;;;5.77;4.10;;;;;;;22.05;55.97;101721.94;5036816;28;20087;-57
2021/06/19 12:58:20;;;;;;;10.30;3.80;;;;;;;22.11;56.21;101726.84;5041422;28;20663;-55
2021/06/19 13:00:55;;;;;;;5.37;4.33;;;;;;;21.87;55.27;101736.09;5037097;28;20025;-57
2021/06/19 13:03:22;;;;;;;6.13;4.00;;;;;;;21.49;56.43;101735.56;5046666;28;20514;-57
2021/06/19 13:05:53;;;;;;;5.00;3.63;;;;;;;21.34;58.15;101740.41;5037747;28;20064;-56
2021/06/19 13:08:19;;;;;;;5.93;4.17;;;;;;;21.14;58.22;101743.91;5030437;28;21400;-56
2021/06/19 13:10:45;;;;;;;5.60;3.90;;;;;;;20.90;59.25;101734.06;5018775;28;20068;-57
2021/06/19 13:13:10;;;;;;;6.73;4.00;;;;;;;20.72;58.84;101733.66;5011311;28;20049;-60
2021/06/19 13:15:36;;;;;;;6.10;3.93;;;;;;;20.32;59.86;101732.22;5008073;28;20048;-56
2021/06/19 13:18:11;;;;;;;;;;;;;;;20.03;61.38;101731.78;5005593;28;20037;-58
2021/06/19 13:21:40;;;;;;;4.57;3.65;;;;;;;19.87;61.46;101734.78;5006162;28;20131;-55
2021/06/19 13:24:18;;;;;;;5.20;3.60;;;;;;;19.84;62.05;101725.03;4977110;28;20046;-56
2021/06/19 13:26:43;;;;;;;5.07;3.83;;;;;;;20.04;60.76;101728.94;4994974;28;20402;-56
2021/06/19 13:29:08;;;;;;;;;;;;;;;20.08;62.55;101727.72;4990514;28;20026;-52
2021/06/19 13:31:41;;;;;;;6.77;3.80;;;;;;;20.15;60.03;101724.56;4989280;28;20000;-57
2021/06/19 13:34:11;;;;;;;4.90;3.80;;;;;;;20.08;60.89;101718.72;4989859;28;20044;-55
2021/06/19 13:36:47;;;;;;;5.83;4.20;;;;;;;19.94;62.31;101711.66;4984921;28;20018;-56
2021/06/19 13:39:23;;;;;;;7.77;4.03;;;;;;;19.98;63.35;101707.75;4980280;28;20112;-56
2021/06/19 13:41:52;;;;;;;7.97;3.95;;;;;;;19.97;61.14;101705.13;4976312;28;20495;-57
2021/06/19 13:44:19;;;;;;;11.07;4.47;;;;;;;19.93;61.22;101696.38;4980911;28;20511;-57
2021/06/19 13:46:45;;;;;;;6.50;4.90;;;;;;;20.01;60.85;101688.53;4983919;28;20053;-58
2021/06/19 13:49:12;;;;;;;9.67;5.40;;;;;;;20.17;61.44;101677.41;4989186;28;20029;-57
2021/06/19 13:51:37;;;;;;;8.90;4.87;;;;;;;20.11;60.93;101675.16;4980681;28;20181;-57
2021/06/19 13:54:03;;;;;;;;;;;;;;;20.05;61.41;101679.22;4980154;28;20030;-51
2021/06/19 13:56:29;;;;;;;7.83;5.70;;;;;;;19.93;62.29;101681.03;4975705;28;19964;-56
2021/06/19 13:58:54;;;;;;;;;;;;;;;19.89;61.30;101684.09;4979270;28;20033;-58
2021/06/19 14:01:20;;;;;;;10.27;6.10;;;;;;;19.87;60.45;101694.16;4985947;28;19968;-52
2021/06/19 14:03:45;;;;;;;;;;;;;;;19.72;60.00;101702.44;4981026;28;20034;-54
2021/06/19 14:06:13;;;;;;;9.37;5.63;;;;;;;19.71;62.73;101698.00;4985846;28;20390;-54
2021/06/19 14:08:43;;;;;;;7.70;5.80;;;;;;;19.73;62.89;101706.88;4978123;28;20042;-55
2021/06/19 14:11:10;;;;;;;8.63;6.30;;;;;;;19.74;62.17;101703.19;4982083;28;20034;-55
2021/06/19 14:13:35;;;;;;;8.53;6.43;;;;;;;19.73;64.05;101698.75;4986155;28;20297;-57
2021/06/19 14:16:01;;;;;;;8.93;6.53;;;;;;;19.67;61.76;101696.53;4981768;28;20623;-54
2021/06/19 14:18:26;;;;;;;;;;;;;;;19.66;61.23;101689.38;4994841;28;20030;-54
2021/06/19 14:20:51;;;;;;;9.87;6.90;;;;;;;19.70;61.89;101674.63;4976316;28;20438;-58
2021/06/19 14:23:17;;;;;;;;;;;;;;;19.82;61.09;101664.69;4983331;28;20403;-60
2021/06/19 14:25:42;;;;;;;8.57;6.60;;;;;;;19.84;61.88;101667.31;4981774;28;20335;-54
2021/06/19 14:28:08;;;;;;;;;;;;;;;19.80;61.28;101665.78;4992306;28;20665;-58
2021/06/19 14:30:34;;;;;;;15.70;7.47;;;;;;;19.65;62.60;101684.94;4983425;28;20466;-57
2021/06/19 14:32:59;;;;;;;10.60;7.73;;;;;;;19.44;61.97;101696.41;4972808;28;20104;-57
2021/06/19 14:35:25;;;;;;;10.25;7.50;;;;;;;19.27;63.45;101670.59;4970030;28;20834;-59
2021/06/19 14:37:50;;;;;;;;;;;;;;;19.22;65.07;101671.94;4968785;28;20527;-57
2021/06/19 14:40:16;;;;;;;13.43;7.63;;;;;;;19.22;66.27;101666.53;4969263;28;19926;-61
2021/06/19 14:42:41;;;;;;;;;;;;;;;19.40;63.33;101648.91;4972631;28;20595;-59
2021/06/19 14:45:07;;;;;;;10.77;7.17;;;;;;;19.45;63.44;101654.84;4977898;28;19917;-61
2021/06/19 14:47:34;;;;;;;;;;;;;;;19.51;63.58;101655.34;4970534;28;20692;-60
2021/06/19 14:49:59;;;;;;;9.85;6.07;;;;;;;19.69;62.25;101643.13;4971228;28;19928;-60
2021/06/19 14:52:25;;;;;;;;;;;;;;;19.77;63.99;101637.97;4976499;28;20034;-59
2021/06/19 14:54:50;;;;;;;10.07;6.03;;;;;;;19.72;61.59;101651.00;4967981;28;19948;-60
2021/06/19 14:57:15;;;;;;;;;;;;;;;19.55;61.51;101646.00;4968758;28;20100;-60
2021/06/19 14:59:41;;;;;;;9.47;5.80;;;;;;;19.47;63.04;101649.31;4969564;28;20095;-61
2021/06/19 15:02:06;;;;;;;;;;;;;;;19.40;62.25;101653.47;4975901;28;20112;-60
2021/06/19 15:04:31;;;;;;;9.73;6.43;;;;;;;19.34;61.92;101651.22;4969969;28;20286;-59
2021/06/19 15:06:56;;;;;;;;;;;;;;;19.40;63.12;101648.91;4972478;28;20475;-60
2021/06/19 15:09:22;;;;;;;12.70;6.30;;;;;;;19.24;64.19;101656.44;4976891;28;19957;-60
2021/06/19 15:11:47;;;;;;;12.70;6.70;;;;;;;19.11;63.47;101651.94;4966920;28;20034;-60
2021/06/19 15:14:13;;;;;;;;;;;;;;;19.00;65.91;101646.47;4972582;28;20042;-60
2021/06/19 15:16:38;;;;;;;9.77;7.40;;;;;;;18.86;65.32;101652.84;4964648;28;20326;-60
2021/06/19 15:19:03;;;;;;;;;;;;;;;18.81;66.95;101647.78;4977499;28;20034;-60
2021/06/19 15:21:30;;;;;;;10.67;7.83;;;;;;;18.94;64.87;101645.09;4966717;28;19918;-60
2021/06/19 15:23:56;;;;;;;11.23;7.47;;;;;;;19.14;64.16;101637.31;4977283;28;20040;-61
2021/06/19 15:26:21;;;;;;;16.75;7.53;;;;;;;19.24;62.18;101635.66;4971882;28;20420;-59
2021/06/19 15:28:47;;;;;;;;;;;;;;;19.36;63.38;101633.88;4965091;28;20336;-59
2021/06/19 15:31:12;;;;;;;14.37;8.20;;;;;;;19.39;62.50;101630.94;4969819;28;19964;-60
2021/06/19 15:33:37;;;;;;;15.53;8.60;;;;;;;19.27;64.98;101627.31;4971315;28;20237;-60
2021/06/19 15:36:03;;;;;;;;;;;;;;;19.11;63.08;101618.63;4970349;28;20523;-59
2021/06/19 15:38:36;;;;;;;11.87;7.50;;;;;;;19.13;63.56;101612.13;4970984;28;19972;-60
2021/06/19 15:41:01;;;;;;;11.53;8.60;;;;;;;19.42;64.44;101598.25;4968015;28;20030;-60
2021/06/19 15:43:27;;;;;;;10.90;7.75;;;;;;;19.72;62.44;101599.56;4972403;28;20292;-60
2021/06/19 15:45:52;;;;;;;;;;;;;;;19.89;61.85;101600.13;4970572;28;20034;-59
2021/06/19 15:48:17;;;;;;;11.67;7.60;;;;;;;19.65;61.95;101598.31;4964749;28;20413;-59
2021/06/19 15:50:43;;;;;;;10.70;8.38;;;;;;;19.69;61.53;101599.81;4966774;28;20058;-60
2021/06/19 15:53:08;;;;;;;;;;;;;;;19.53;62.20;101593.88;4976716;28;20031;-61
2021/06/19 15:55:33;;;;;;;9.63;7.33;;;;;;;19.43;63.87;101602.69;4963380;28;19984;-60
2021/06/19 15:57:59;;;;;;;;;;;;;;;19.24;64.01;101597.78;4978080;28;20025;-60
2021/06/19 16:00:24;;;;;;;10.00;7.40;;;;;;;19.16;64.13;101591.25;4969093;28;20152;-60
2021/06/19 16:02:49;;;;;;;;;;;;;;;18.98;64.94;101595.19;4973329;28;20476;-60
2021/06/19 16:05:15;;;;;;;13.70;8.47;;;;;;;18.99;65.53;101585.25;4969267;28;19933;-59
2021/06/19 16:07:40;;;;;;;11.23;7.87;;;;;;;19.04;64.18;101577.66;4969261;28;20040;-60
2021/06/19 16:10:06;;;;;;;;;;;;;;;19.17;62.99;101582.13;4974206;28;20030;-59
2021/06/19 16:12:32;;;;;;;13.47;7.50;;;;;;;19.20;64.58;101579.22;4972546;28;20434;-60
2021/06/19 16:14:57;;;;;;;13.00;7.32;;;;;;;19.24;63.55;101561.75;4967023;28;20515;-57
2021/06/19 16:17:22;;;;;;;;;;;;;;;19.13;63.18;101554.47;4969901;28;20292;-58
2021/06/19 16:19:48;;;;;;;10.07;6.53;;;;;;;19.15;63.66;101541.69;4965015;28;20389;-59
2021/06/19 16:22:13;;;;;;;;;;;;;;;19.28;64.77;101538.91;4968583;28;20026;-59
2021/06/19 16:24:38;;;;;;;11.93;6.77;;;;;;;19.35;62.99;101542.03;4963907;28;20215;-59
2021/06/19 16:27:04;;;;;;;;;;;;;;;19.43;63.31;101535.03;4976152;28;20037;-58
2021/06/19 16:29:30;;;;;;;10.53;6.47;;;;;;;19.36;62.13;101532.91;4966903;28;20360;-60
2021/06/19 16:31:56;;;;;;;9.43;6.40;;;;;;;19.36;61.94;101533.78;4972595;28;20033;-59
2021/06/19 16:34:21;;;;;;;11.35;6.97;;;;;;;19.51;61.68;101530.88;4968942;28;20343;-59
2021/06/19 16:36:47;;;;;;;;;;;;;;;19.27;61.74;101537.19;4965621;28;20392;-60
2021/06/19 16:39:12;;;;;;;11.43;7.27;;;;;;;19.02;61.37;101528.22;4972578;28;19921;-60
2021/06/19 16:41:38;;;;;;;;;;;;;;;18.82;63.28;101519.75;4964192;28;20437;-58
2021/06/19 16:44:03;;;;;;;9.90;6.37;;;;;;;18.73;63.63;101515.03;4971364;28;20394;-59
2021/06/19 16:46:29;;;;;;;;;;;;;;;18.84;65.17;101522.34;4967610;28;20605;-59
2021/06/19 16:48:54;;;;;;;14.57;8.00;;;;;;;18.91;63.64;101530.84;4970153;28;20418;-60
2021/06/19 16:51:19;;;;;;;;;;;;;;;18.76;63.21;101531.03;4969081;28;20065;-59
2021/06/19 16:53:47;;;;;;;12.23;7.10;;;;;;;18.91;63.46;101528.16;4969532;28;19975;-58
2021/06/19 16:56:12;;;;;;;10.63;6.93;;;;;;;19.07;64.36;101511.66;4966069;28;20317;-60
2021/06/19 16:58:38;;;;;;;12.48;7.82;;;;;;;18.87;62.55;101511.31;4967619;28;20281;-59
2021/06/19 17:01:03;;;;;;;;;;;;;;;18.53;63.44;101508.41;4966859;28;20030;-58
2021/06/19 17:03:28;;;;;;;10.60;7.73;;;;;;;18.57;64.85;101499.09;4969236;28;19924;-59
2021/06/19 17:05:54;;;;;;;;;;;;;;;18.60;63.72;101500.72;4972002;28;20037;-58
2021/06/19 17:08:19;;;;;;;15.47;9.13;;;;;;;18.49;64.18;101491.56;4964789;28;20422;-59
2021/06/19 17:10:47;;;;;;;14.35;9.95;;;;;;;18.43;64.40;101491.16;4968903;28;20884;-59
2021/06/19 17:13:13;;;;;;;13.93;9.30;;;;;;;18.41;65.45;101493.94;4970642;28;20019;-58
2021/06/19 17:15:38;;;;;;;12.15;8.05;;;;;;;18.15;65.72;101485.94;4967601;28;20871;-59
2021/06/19 17:18:03;;;;;;;;;;;;;;;18.01;65.70;101472.53;4964344;28;20096;-59
2021/06/19 17:20:29;;;;;;;14.03;8.30;;;;;;;17.93;66.64;101466.84;4955857;28;94319;-59
2021/06/19 17:22:58;;;;;;;12.90;8.00;;;;;;;17.95;67.13;101465.78;4975719;28;20288;-60
2021/06/19 17:25:24;;;;;;;13.17;8.37;;;;;;;18.03;67.51;101457.97;4969496;28;20069;-58
2021/06/19 17:27:49;;;;;;;12.18;8.60;;;;;;;17.97;68.47;101442.22;4962477;28;20396;-58
2021/06/19 17:30:18;;;;;;;17.52;8.55;;;;;;;17.98;68.80;101445.78;4963722;28;20033;-58
2021/06/19 17:32:43;;;;;;;13.87;7.80;;;;;;;17.95;68.20;101443.25;4963922;28;20659;-61
2021/06/19 17:35:09;;;;;;;11.20;8.60;;;;;;;17.72;68.74;101438.56;4973469;28;20790;-59
2021/06/19 17:37:34;;;;;;;19.25;8.88;;;;;;;17.64;69.54;101440.94;4969592;28;20396;-58
2021/06/19 17:40:00;;;;;;;14.57;9.43;;;;;;;17.48;69.83;101433.06;4970462;28;20077;-60
2021/06/19 17:42:25;;;;;;;14.03;9.87;;;;;;;17.34;70.78;101423.25;4966664;28;20042;-59
2021/06/19 17:44:50;;;;;;;14.52;10.43;;;;;;;17.45;70.37;101419.81;4967425;28;20038;-59
2021/06/19 17:47:16;;;;;;;15.18;10.32;;;;;;;17.43;70.45;101415.50;4953578;28;20030;-59
2021/06/19 17:49:41;;;;;;;12.95;9.90;;;;;;;17.39;71.15;101409.44;4962596;28;20390;-60
2021/06/19 17:52:36;;;;;;;15.43;10.60;;;;;;;17.33;70.95;101399.06;4968242;28;20121;-59
2021/06/19 17:55:01;;;;;;;15.30;10.40;;;;;;;17.31;71.51;101411.81;4967363;28;20470;-58
2021/06/19 17:57:27;;;;;;;14.48;10.50;;;;;;;17.39;71.06;101421.09;4960109;28;20430;-60
2021/06/19 17:59:52;;;;;;;;;;;;;;;17.35;71.41;101421.41;4966336;28;20725;-59
2021/06/19 18:02:18;;;;;;;13.17;9.97;;;;;;;17.31;71.41;101422.59;4973034;28;19917;-59
2021/06/19 18:04:43;;;;;;;15.13;9.68;;;;;;;17.25;71.48;101413.97;4962643;28;20113;-60
2021/06/19 18:07:09;;;;;;;13.75;9.70;;;;;;;17.31;72.34;101418.06;4974344;28;20060;-60
2021/06/19 18:09:35;;;;;;;12.67;9.50;;;;;;;17.33;72.22;101412.56;4969936;28;20026;-58
2021/06/19 18:12:01;;;;;;;14.97;10.00;;;;;;;17.29;72.31;101406.50;4971207;28;20674;-58
2021/06/19 18:14:26;;;;;;;13.32;10.10;;;;;;;17.32;72.25;101408.13;4971056;28;20320;-59
2021/06/19 18:16:51;;;;;;;14.82;8.82;;;;;;;17.35;72.35;101402.53;4961733;28;21494;-59
2021/06/19 18:19:17;;;;;;;14.68;9.90;;;;;;;17.38;72.24;101410.41;4976872;28;20392;-58
2021/06/19 18:21:43;;;;;;;13.80;10.10;;;;;;;17.31;72.10;101409.97;4968284;28;20121;-58
2021/06/19 18:24:08;;;;;;;17.15;9.63;;;;;;;17.32;72.14;101409.00;4976551;28;20045;-58
2021/06/19 18:26:34;;;;;;;13.20;10.48;;;;;;;17.31;71.85;101396.50;4962528;28;20040;-60
2021/06/19 18:28:59;;;;;;;13.30;9.90;;;;;;;17.33;72.39;101388.28;4970087;28;20122;-58
2021/06/19 18:31:25;;;;;;;14.52;10.27;;;;;;;17.32;72.03;101395.53;4969613;28;20586;-58
2021/06/19 18:33:50;;;;;;;14.10;10.43;;;;;;;17.34;72.71;101393.59;4969654;28;20113;-59
2021/06/19 18:36:15;;;;;;;16.00;10.43;;;;;;;17.26;72.46;101385.19;4969290;28;20050;-58
2021/06/19 18:38:41;;;;;;;17.02;11.55;;;;;;;17.16;73.57;101382.28;4971332;28;20030;-59
2021/06/19 18:41:06;;;;;;;14.70;11.15;;;;;;;17.11;73.64;101372.78;4969027;28;20038;-59
2021/06/19 18:43:32;;;;;;;15.52;11.15;;;;;;;17.05;73.90;101380.28;4971870;28;20068;-60
2021/06/19 18:45:57;;;;;;;15.32;11.30;;;;;;;17.04;74.39;101384.00;4966914;28;20197;-60
2021/06/19 18:48:23;;;;;;;13.68;10.10;;;;;;;17.01;74.57;101383.34;4970777;28;20042;-60
2021/06/19 18:50:48;;;;;;;16.50;11.13;;;;;;;16.93;74.63;101373.06;4970122;28;20284;-60
2021/06/19 18:53:14;;;;;;;14.18;10.43;;;;;;;16.90;74.91;101370.53;4982039;28;20037;-59
2021/06/19 18:55:39;;;;;;;14.98;10.60;;;;;;;16.87;74.96;101366.22;4967354;28;20027;-59
2021/06/19 18:58:04;;;;;;;15.10;10.45;;;;;;;16.86;75.03;101371.72;4959416;28;20127;-59
2021/06/19 19:00:30;;;;;;;13.85;10.80;;;;;;;16.83;75.03;101366.53;4962969;28;20117;-59
2021/06/19 19:02:55;;;;;;;16.67;11.23;;;;;;;16.80;75.54;101364.09;4971660;28;20033;-59
2021/06/19 19:05:21;;;;;;;15.65;10.38;;;;;;;16.77;75.40;101359.78;4974395;28;20129;-59
2021/06/19 19:07:47;;;;;;;16.10;12.15;;;;;;;16.76;75.54;101347.25;4970307;28;20034;-60
2021/06/19 19:10:13;;;;;;;15.55;11.27;;;;;;;16.73;76.06;101342.06;4970376;28;20029;-59
2021/06/19 19:12:38;;;;;;;14.55;11.20;;;;;;;16.73;76.25;101332.19;4972369;28;20057;-58
2021/06/19 19:15:07;;;;;;;17.83;11.75;;;;;;;16.71;76.00;101334.09;4969420;28;20441;-58
2021/06/19 19:17:35;;;;;;;17.50;11.90;;;;;;;16.59;76.56;101341.19;4960654;28;20105;-62
2021/06/19 19:20:01;;;;;;;18.27;12.83;;;;;;;16.54;76.74;101337.97;4970180;28;20311;-60
2021/06/19 19:22:27;;;;;;;22.08;12.57;;;;;;;16.51;76.66;101340.84;4968562;28;20767;-59
2021/06/19 19:24:52;;;;;;;19.02;12.18;;;;;;;16.50;77.07;101343.66;4966725;28;20115;-59
2021/06/19 19:27:18;;;;;;;13.35;9.80;;;;;;;16.47;77.20;101339.34;4966137;28;20104;-59
2021/06/19 19:29:44;;;;;;;;;;;;;;;16.45;77.33;101330.50;4973229;28;20034;-58
2021/06/19 19:32:11;;;;;;;15.10;11.00;;;;;;;16.39;77.61;101320.16;4971032;28;20375;-59
2021/06/19 19:34:38;;;;;;;17.97;13.00;;;;;;;16.35;78.36;101326.69;4970246;28;20374;-59
2021/06/19 19:37:05;;;;;;;19.67;11.63;;;;;;;16.33;78.49;101328.59;4966644;28;20402;-59
2021/06/19 19:39:31;;;;;;;18.47;12.33;;;;;;;16.35;78.71;101326.69;4965268;28;20277;-59
2021/06/19 19:41:56;;;;;;;21.00;14.10;;;;;;;16.35;78.71;101329.38;4965120;28;20275;-59
2021/06/19 19:44:24;;;;;;;17.75;12.73;;;;;;;16.34;78.48;101319.56;4977697;28;20476;-59
2021/06/19 19:46:50;;;;;;;19.60;12.90;;;;;;;16.30;78.35;101309.03;4969378;28;20038;-59
2021/06/19 19:49:15;;;;;;;18.25;13.38;;;;;;;16.27;78.86;101308.38;4960538;28;20336;-59
2021/06/19 19:51:41;;;;;;;18.48;12.10;;;;;;;16.23;79.05;101315.78;4966488;28;20092;-60
2021/06/19 19:54:07;;;;;;;18.07;13.27;;;;;;;16.20;79.28;101313.28;4966965;28;20041;-59
2021/06/19 19:56:32;;;;;;;17.38;11.95;;;;;;;16.21;79.27;101319.53;4967066;28;20296;-59
2021/06/19 19:58:58;;;;;;;21.67;14.93;;;;;;;16.22;78.89;101327.53;4970325;28;20034;-60
2021/06/19 20:01:23;;;;;;;21.55;14.68;;;;;;;16.24;79.20;101330.97;4974524;28;20026;-58
2021/06/19 20:03:48;;;;;;;20.23;13.55;;;;;;;16.25;79.62;101327.28;4965699;28;20411;-61
2021/06/19 20:06:14;;;;;;;23.52;14.73;;;;;;;16.24;79.71;101319.34;4972373;28;20067;-59
2021/06/19 20:08:40;;;;;;;20.75;13.10;;;;;;;16.23;79.53;101329.25;4960241;28;20500;-60
2021/06/19 20:11:09;;;;;;;19.63;14.63;;;;;;;16.23;79.54;101326.56;4962145;28;20029;-59
2021/06/19 20:13:34;;;;;;;23.50;15.20;;;;;;;16.19;79.27;101316.94;4967034;28;20368;-59
2021/06/19 20:16:00;;;;;;;24.00;15.60;;;;;;;16.12;80.12;101296.78;4966997;28;20813;-58
2021/06/19 20:18:25;;;;;;;24.55;14.82;;;;;;;16.07;79.94;101286.31;4964918;28;20035;-59
2021/06/19 20:20:54;;;;;;;23.25;15.07;;;;;;;16.03;80.45;101273.19;4964846;28;20101;-59
2021/06/19 20:23:20;;;;;;;22.27;14.90;;;;;;;16.00;80.55;101266.19;4964893;28;20027;-60
2021/06/19 20:25:46;;;;;;;22.67;15.73;;;;;;;15.98;80.23;101258.22;4965710;28;20285;-60
2021/06/19 20:28:11;;;;;;;22.67;15.70;;;;;;;15.97;80.32;101251.09;4963299;28;20293;-60
2021/06/19 20:30:37;;;;;;;22.83;16.25;;;;;;;15.95;80.52;101234.19;4966677;28;20031;-62
2021/06/19 20:33:02;;;;;;;23.08;15.05;;;;;;;15.96;80.81;101229.69;4966613;28;20047;-60
2021/06/19 20:35:28;;;;;;;27.30;16.98;;;;;;;15.96;80.61;101230.53;4958287;28;20029;-61
2021/06/19 20:37:53;;;;;;;25.13;16.58;;;;;;;15.96;80.28;101232.38;4965518;28;20245;-60
2021/06/19 20:40:20;;;;;;;23.90;16.40;;;;;;;15.93;81.08;101229.88;4965906;28;20030;-60
2021/06/19 20:42:46;;;;;;;24.93;16.43;;;;;;;15.94;81.00;101245.06;4959729;28;20029;-60
2021/06/19 20:45:13;;;;;;;26.40;16.13;;;;;;;15.95;81.08;101250.34;4978254;28;20291;-59
2021/06/19 20:47:38;;;;;;;24.00;16.03;;;;;;;15.96;81.33;101251.22;4961577;28;20046;-59
2021/06/19 20:50:07;;;;;;;32.95;21.33;;;;;;;15.96;81.67;101244.00;4970353;28;20750;-60
2021/06/19 20:52:35;;;;;;;26.53;18.97;;;;;;;15.98;81.60;101241.19;4962469;28;20030;-59
2021/06/19 20:55:00;;;;;;;30.77;19.77;;;;;;;15.95;81.60;101226.13;4955575;28;20806;-59
2021/06/19 20:57:26;;;;;;;28.48;21.30;;;;;;;15.95;81.80;101222.56;4969391;28;20289;-59
2021/06/19 20:59:51;;;;;;;26.33;19.27;;;;;;;15.93;82.01;101211.94;4962237;28;20400;-60
2021/06/19 21:02:24;;;;;;;29.80;21.45;;;;;;;15.93;82.08;101206.53;4964552;28;20076;-59
2021/06/19 21:04:50;;;;;;;28.97;19.83;;;;;;;15.90;81.91;101197.81;4962606;28;20076;-60
2021/06/19 21:07:15;;;;;;;26.80;19.80;;;;;;;15.87;82.19;101198.88;4969432;28;20721;-59
2021/06/19 21:09:41;;;;;;;32.55;21.83;;;;;;;15.83;82.50;101195.53;4971805;28;20080;-61
2021/06/19 21:12:07;;;;;;;31.00;22.80;;;;;;;15.81;82.30;101202.81;4961501;28;20341;-60
2021/06/19 21:14:33;;;;;;;37.67;23.60;;;;;;;15.82;82.51;101201.81;4970253;28;20480;-58
2021/06/19 21:16:59;;;;;;;34.65;23.77;;;;;;;15.82;82.44;101198.28;4965043;28;20060;-60
2021/06/19 21:19:25;;;;;;;32.35;22.02;;;;;;;15.81;82.82;101197.44;4972098;28;20480;-58
2021/06/19 21:21:50;;;;;;;35.03;24.73;;;;;;;15.84;82.98;101193.72;4960521;28;20034;-59
2021/06/19 21:24:16;;;;;;;33.80;23.83;;;;;;;15.87;83.20;101192.63;4963575;28;20885;-59
2021/06/19 21:26:41;;;;;;;35.15;24.23;;;;;;;15.89;82.63;101180.78;4964526;28;20034;-60
2021/06/19 21:29:07;;;;;;;34.65;23.65;;;;;;;15.90;82.67;101165.53;4969085;28;20514;-59
2021/06/19 21:31:32;;;;;;;37.92;27.13;;;;;;;15.90;82.90;101161.00;4966985;28;20180;-60
2021/06/19 21:33:58;;;;;;;32.30;24.02;;;;;;;15.92;82.50;101158.19;4970693;28;20141;-59
2021/06/19 21:36:24;;;;;;;33.97;24.70;;;;;;;15.94;82.92;101153.59;4961871;28;20124;-59
2021/06/19 21:38:50;;;;;;;33.40;26.03;;;;;;;15.95;82.95;101148.09;4967680;28;20030;-59
2021/06/19 21:41:16;;;;;;;33.93;25.93;;;;;;;15.97;83.03;101127.31;4970606;28;20658;-58
2021/06/19 21:43:41;;;;;;;38.90;27.40;;;;;;;15.98;83.09;101110.22;4962826;28;20303;-58
2021/06/19 21:46:07;;;;;;;33.28;24.15;;;;;;;16.00;82.91;101098.50;4968221;28;20439;-60
2021/06/19 21:48:33;;;;;;;36.38;25.95;;;;;;;16.00;82.84;101091.28;4972577;28;20306;-59
2021/06/19 21:50:58;;;;;;;32.33;25.05;;;;;;;16.00;83.08;101088.56;4969505;28;20037;-59
2021/06/19 21:53:23;;;;;;;35.78;26.52;;;;;;;15.99;82.64;101103.00;4971695;28;20104;-59
2021/06/19 21:55:49;;;;;;;35.30;27.55;;;;;;;15.98;83.29;101110.22;4968531;28;22156;-59
2021/06/19 21:58:14;;;;;;;34.55;26.45;;;;;;;16.00;83.63;101130.78;4973935;28;20206;-60
2021/06/19 22:00:45;;;;;;;34.35;25.08;;;;;;;16.04;84.66;101164.56;4972196;28;20032;-59
2021/06/19 22:03:12;;;;;;;37.60;28.27;;;;;;;16.07;85.69;101199.34;4969495;28;20421;-61
2021/06/19 22:05:38;;;;;;;37.80;26.23;;;;;;;16.07;84.99;101169.75;4973551;28;20350;-59
2021/06/19 22:08:04;;;;;;;34.90;25.70;;;;;;;16.07;84.73;101161.69;4973025;28;20285;-59
2021/06/19 22:10:32;;;;;;;30.30;22.63;;;;;;;16.02;84.75;101155.72;4969102;28;20292;-59
2021/06/19 22:12:58;;;;;;;41.53;30.33;;;;;;;15.89;86.15;101151.19;4968190;28;20888;-60
2021/06/19 22:15:23;;;;;;;49.00;31.73;;;;;;;15.74;87.11;101144.13;4971974;28;20286;-60
2021/06/19 22:17:48;;;;;;;43.50;29.83;;;;;;;15.62;87.43;101157.47;4970861;28;20025;-60
2021/06/19 22:20:14;;;;;;;48.45;32.40;;;;;;;15.54;88.15;101162.50;4960273;28;20565;-59
2021/06/19 22:22:39;;;;;;;39.63;27.27;;;;;;;15.51;88.08;101154.63;4973489;28;20033;-60
2021/06/19 22:25:06;;;;;;;72.32;36.88;;;;;;;15.50;89.62;101148.38;4974297;28;20487;-59
2021/06/19 22:27:32;;;;;;;69.00;38.90;;;;;;;15.49;89.74;101153.84;4967606;28;20033;-59
2021/06/19 22:29:57;;;;;;;70.82;37.65;;;;;;;15.49;90.33;101157.41;4972270;28;20289;-59
2021/06/19 22:32:23;;;;;;;71.95;36.28;;;;;;;15.47;90.17;101148.56;4964570;28;20029;-59
2021/06/19 22:34:48;;;;;;;74.55;36.83;;;;;;;15.45;90.22;101144.28;4966801;28;20022;-59
2021/06/19 22:37:13;;;;;;;70.60;35.50;;;;;;;15.40;90.33;101167.91;4968657;28;20273;-60
2021/06/19 22:39:39;;;;;;;79.18;42.53;;;;;;;15.39;91.40;101168.88;4969378;28;20473;-60